Time;durP1;ratioP1;P1;durP2;ratioP2;P2;SDS_P1;SDS_P2;PMS_P1;PMS_P2;Temp;Humidity;BMP_temperature;BMP_pressure;BME280_temperature;BME280_humidity;BME280_pressure;Samples;Min_cycle;Max_cycle;Signal;HPM_P1;HPM_P2
2021/01/31 00:00:47;;;;;;;32.10;17.20;;;-0.40;99.90;;;-146.47;100.00;66290.13;5036867;28;20195;-86
2021/01/31 00:03:32;;;;;;;30.20;17.77;;;-0.50;99.90;;;-146.47;100.00;66290.13;5032834;28;20227;-86
2021/01/31 00:06:20;;;;;;;29.33;15.53;;;-0.50;99.90;;;-146.47;100.00;66290.13;5038428;28;20204;-86
2021/01/31 00:09:05;;;;;;;30.60;16.17;;;-0.50;99.90;;;-146.47;100.00;66290.13;5036152;28;20227;-86
2021/01/31 00:11:51;;;;;;;31.07;16.63;;;-0.50;99.90;;;-146.47;100.00;66290.13;5025310;28;20250;-85
2021/01/31 00:14:37;;;;;;;29.50;15.73;;;-0.50;99.90;;;-146.47;100.00;66290.13;5036070;28;20250;-86
2021/01/31 00:17:22;;;;;;;30.10;16.80;;;-0.50;99.90;;;-146.47;100.00;66290.13;5036055;28;20200;-85
2021/01/31 00:20:10;;;;;;;36.20;18.27;;;-0.60;99.90;;;-146.47;100.00;66290.13;5035812;28;20754;-87
2021/01/31 00:22:55;;;;;;;34.40;16.47;;;-0.60;99.90;;;-146.47;100.00;66290.13;5031299;28;20206;-86
2021/01/31 00:25:40;;;;;;;30.83;16.47;;;-0.60;99.90;;;-146.47;100.00;66290.13;5036433;28;20246;-86
2021/01/31 00:28:27;;;;;;;33.70;19.43;;;-0.60;99.90;;;-146.47;100.00;66290.13;5030785;28;20653;-87
2021/01/31 00:31:13;;;;;;;31.97;18.33;;;-0.60;99.90;;;-146.47;100.00;66290.13;5034337;28;20215;-87
2021/01/31 00:33:57;;;;;;;33.27;18.03;;;-0.60;99.90;;;-146.47;100.00;66290.13;5036171;28;20203;-87
2021/01/31 00:36:44;;;;;;;34.13;17.90;;;-0.70;99.90;;;-146.47;100.00;66290.13;5037659;28;20215;-86
2021/01/31 00:39:29;;;;;;;32.20;15.90;;;-0.70;99.90;;;-146.47;100.00;66290.13;5037021;28;20254;-86
2021/01/31 00:42:16;;;;;;;35.00;18.40;;;-0.70;99.90;;;-146.47;100.00;66290.13;5039705;28;20230;-86
2021/01/31 00:45:08;;;;;;;34.10;18.90;;;-0.70;99.90;;;-146.47;100.00;66290.13;5037507;28;20327;-86
2021/01/31 00:47:53;;;;;;;33.57;17.67;;;-0.70;99.90;;;-146.47;100.00;66290.13;5037260;28;20210;-86
2021/01/31 00:50:40;;;;;;;27.77;14.10;;;-0.80;99.90;;;-146.47;100.00;66290.13;5028464;28;20316;-87
2021/01/31 00:53:26;;;;;;;31.17;17.93;;;-0.80;99.90;;;-146.47;100.00;66290.13;5036750;28;20235;-85
2021/01/31 00:56:11;;;;;;;33.20;17.80;;;-0.80;99.90;;;-146.47;100.00;66290.13;5035631;28;20683;-86
2021/01/31 00:58:56;;;;;;;32.20;19.67;;;-0.80;99.90;;;-146.47;100.00;66290.13;5037970;28;20270;-86
2021/01/31 01:01:42;;;;;;;35.17;18.07;;;-0.80;99.90;;;-146.47;100.00;66290.13;5031036;28;20216;-86
2021/01/31 01:04:28;;;;;;;38.10;20.17;;;-0.90;99.90;;;-146.47;100.00;66290.13;5036474;28;20223;-86
2021/01/31 01:07:14;;;;;;;31.87;17.17;;;-0.90;99.90;;;-146.47;100.00;66290.13;5039443;28;20237;-87
2021/01/31 01:09:59;;;;;;;33.50;16.57;;;-0.90;99.90;;;-146.47;100.00;66290.13;5035310;28;20789;-87
2021/01/31 01:12:44;;;;;;;29.37;14.87;;;-0.90;99.90;;;-146.47;100.00;66290.13;5036513;28;20207;-87
2021/01/31 01:15:29;;;;;;;30.43;16.07;;;-1.00;99.90;;;-146.47;100.00;66290.13;5033181;28;20210;-86
2021/01/31 01:18:15;;;;;;;29.57;17.67;;;-1.00;99.90;;;-146.47;100.00;66290.13;5033426;28;20883;-88
2021/01/31 01:21:01;;;;;;;35.57;18.43;;;-1.00;99.90;;;-146.47;100.00;66290.13;5030905;28;20235;-87
2021/01/31 01:23:46;;;;;;;31.67;16.87;;;-1.00;99.90;;;-146.47;100.00;66290.13;5033629;28;20203;-86
2021/01/31 01:26:32;;;;;;;31.83;16.83;;;-1.10;99.90;;;-146.47;100.00;66290.13;5036123;28;20215;-86
2021/01/31 01:29:18;;;;;;;29.70;15.73;;;-1.10;99.90;;;-146.47;100.00;66290.13;5037445;28;20270;-86
2021/01/31 01:32:03;;;;;;;30.90;16.60;;;-1.10;99.90;;;-146.47;100.00;66290.13;5047585;28;20211;-86
2021/01/31 01:34:49;;;;;;;37.60;17.83;;;-1.20;99.90;;;-146.47;100.00;66290.13;5040481;28;20918;-86
2021/01/31 01:37:35;;;;;;;35.73;20.57;;;-1.20;99.90;;;-146.47;100.00;66290.13;5037464;28;20239;-86
2021/01/31 01:40:24;;;;;;;33.57;17.17;;;-1.20;99.90;;;-146.47;100.00;66290.13;5036500;28;20206;-85
2021/01/31 01:43:16;;;;;;;36.63;19.27;;;-1.20;99.90;;;-146.47;100.00;66290.13;5033421;28;20199;-86
2021/01/31 01:46:27;;;;;;;34.90;18.73;;;-1.30;99.90;;;-146.47;100.00;66290.13;5037249;28;20199;-86
2021/01/31 01:49:21;;;;;;;36.90;19.97;;;-1.30;99.90;;;-146.47;100.00;66290.13;5030442;28;20219;-86
2021/01/31 01:52:17;;;;;;;40.43;20.43;;;-1.40;99.90;;;-146.47;100.00;66290.13;5024431;28;20238;-86
2021/01/31 01:55:09;;;;;;;35.50;18.60;;;-1.40;99.90;;;-146.47;100.00;66290.13;5037535;28;20204;-86
2021/01/31 01:58:04;;;;;;;38.80;19.10;;;-1.40;99.90;;;-146.47;100.00;66290.13;5030578;28;20266;-86
2021/01/31 02:00:50;;;;;;;36.03;17.63;;;-1.50;99.90;;;-146.47;100.00;66290.13;5035703;28;20223;-85
2021/01/31 02:03:42;;;;;;;32.77;17.10;;;-1.50;99.90;;;-146.47;100.00;66290.13;5036328;28;20261;-85
2021/01/31 02:06:30;;;;;;;38.10;18.43;;;-1.60;99.90;;;-146.47;100.00;66290.13;5030522;28;20196;-87
2021/01/31 02:09:16;;;;;;;35.10;17.47;;;-1.60;99.90;;;-146.47;100.00;66290.13;5029040;28;20220;-85
2021/01/31 02:12:06;;;;;;;34.87;16.07;;;-1.70;99.90;;;-146.47;100.00;66290.13;5035454;28;20223;-85
2021/01/31 02:14:56;;;;;;;39.40;20.57;;;-1.70;99.90;;;-146.47;100.00;66290.13;5035937;28;20223;-85
2021/01/31 02:18:05;;;;;;;37.47;19.10;;;-1.80;99.90;;;-146.47;100.00;66290.13;5023070;28;20208;-85
2021/01/31 02:21:36;;;;;;;40.97;20.90;;;-1.80;99.90;;;-146.47;100.00;66290.13;5034366;28;20207;-85
2021/01/31 02:24:49;;;;;;;36.73;19.43;;;-1.90;99.90;;;-146.47;100.00;66290.13;5028747;28;20234;-85
2021/01/31 02:28:32;;;;;;;37.60;20.97;;;-1.90;99.90;;;-146.47;100.00;66290.13;5034370;28;20284;-85
2021/01/31 02:32:03;;;;;;;37.83;18.13;;;-2.00;99.90;;;-146.47;100.00;66290.13;5028806;28;20208;-86
2021/01/31 02:34:57;;;;;;;42.20;21.30;;;-2.00;99.90;;;-146.47;100.00;66290.13;5031826;28;20211;-86
2021/01/31 02:37:56;;;;;;;42.00;21.57;;;-2.10;99.90;;;-146.47;100.00;66290.13;5032223;28;20191;-86
2021/01/31 02:40:53;;;;;;;36.93;19.30;;;-2.10;99.90;;;-146.47;100.00;66290.13;5036967;28;20206;-87
2021/01/31 02:43:44;;;;;;;40.00;19.40;;;-2.10;99.90;;;-146.47;100.00;66290.13;5044725;28;20215;-85
2021/01/31 02:46:37;;;;;;;43.17;19.93;;;-2.10;99.90;;;-146.47;100.00;66290.13;5043502;28;20653;-86
2021/01/31 02:49:29;;;;;;;43.63;20.83;;;-2.20;99.90;;;-146.47;100.00;66290.13;5034773;28;20295;-85
2021/01/31 02:52:22;;;;;;;41.73;21.47;;;-2.20;99.90;;;-146.47;100.00;66290.13;5036197;28;20266;-85
2021/01/31 02:55:14;;;;;;;45.67;22.93;;;-2.20;99.90;;;-146.47;100.00;66290.13;5038545;28;20284;-86
2021/01/31 02:58:07;;;;;;;37.50;18.57;;;-2.20;99.90;;;-146.47;100.00;66290.13;5041627;28;20636;-87
2021/01/31 03:01:01;;;;;;;47.03;24.00;;;-2.20;99.90;;;-146.47;100.00;66290.13;5039188;28;20632;-87
2021/01/31 03:03:56;;;;;;;43.77;21.87;;;-2.20;99.90;;;-146.47;100.00;66290.13;5039717;28;20277;-87
2021/01/31 03:06:53;;;;;;;43.77;19.27;;;-2.20;99.90;;;-146.47;100.00;66290.13;5040553;28;21539;-90
2021/01/31 03:09:48;;;;;;;45.53;21.93;;;-2.30;99.90;;;-146.47;100.00;66290.13;5040777;28;20282;-87
2021/01/31 03:12:40;;;;;;;43.93;23.03;;;-2.30;99.90;;;-146.47;100.00;66290.13;5038541;28;20246;-86
2021/01/31 03:15:31;;;;;;;43.90;22.30;;;-2.30;99.90;;;-146.47;100.00;66290.13;5042154;28;20266;-86
2021/01/31 03:18:26;;;;;;;36.73;17.93;;;-2.30;99.90;;;-146.47;100.00;66290.13;5041840;28;20227;-86
2021/01/31 03:21:20;;;;;;;41.03;20.77;;;-2.30;99.90;;;-146.47;100.00;66290.13;5037531;28;20571;-87
2021/01/31 03:24:14;;;;;;;45.67;22.47;;;-2.30;99.90;;;-146.47;100.00;66290.13;5035199;28;20615;-86
2021/01/31 03:27:08;;;;;;;45.87;22.77;;;-2.30;99.90;;;-146.47;100.00;66290.13;5041241;28;20215;-86
2021/01/31 03:29:53;;;;;;;47.07;22.17;;;-2.40;99.90;;;-146.47;100.00;66290.13;5038222;28;20640;-86
2021/01/31 03:32:46;;;;;;;40.53;22.00;;;-2.40;99.90;;;-146.47;100.00;66290.13;5035324;28;20222;-85
2021/01/31 03:35:37;;;;;;;39.87;21.20;;;-2.40;99.90;;;-146.47;100.00;66290.13;5045852;28;20567;-86
2021/01/31 03:38:32;;;;;;;40.40;19.80;;;-2.40;99.90;;;-146.47;100.00;66290.13;5046411;28;20230;-86
2021/01/31 03:41:21;;;;;;;48.97;24.43;;;-2.40;99.90;;;-146.47;100.00;66290.13;5041464;28;20204;-86
2021/01/31 03:44:08;;;;;;;42.60;20.90;;;-2.40;99.90;;;-146.47;100.00;66290.13;5040421;28;20199;-86
2021/01/31 03:47:01;;;;;;;46.87;22.87;;;-2.40;99.90;;;-146.47;100.00;66290.13;5053816;28;20232;-88
2021/01/31 03:49:54;;;;;;;39.87;19.53;;;-2.40;99.90;;;-146.47;100.00;66290.13;5059884;28;20235;-89
2021/01/31 03:52:40;;;;;;;43.67;19.97;;;-2.40;99.90;;;-146.47;100.00;66290.13;5035802;28;20207;-85
2021/01/31 03:55:26;;;;;;;39.50;19.70;;;-2.50;99.90;;;-146.47;100.00;66290.13;5036363;28;20219;-85
2021/01/31 03:58:17;;;;;;;38.87;19.23;;;-2.50;99.90;;;-146.47;100.00;66290.13;5032372;28;20224;-85
2021/01/31 04:01:05;;;;;;;39.87;20.10;;;-2.50;99.90;;;-146.47;100.00;66290.13;5035031;28;20809;-86
2021/01/31 04:04:01;;;;;;;37.93;18.40;;;-2.50;99.90;;;-146.47;100.00;66290.13;5034510;28;20683;-87
2021/01/31 04:06:53;;;;;;;39.10;21.57;;;-2.60;99.90;;;-146.47;100.00;66290.13;5038901;28;20272;-89
2021/01/31 04:09:41;;;;;;;41.30;21.73;;;-2.60;99.90;;;-146.47;100.00;66290.13;5055127;28;20215;-88
2021/01/31 04:12:32;;;;;;;42.87;21.67;;;-2.60;99.90;;;-146.47;100.00;66290.13;5056253;28;20260;-87
2021/01/31 04:15:37;;;;;;;47.37;22.17;;;-2.60;99.90;;;-146.47;100.00;66290.13;5055000;28;20179;-88
2021/01/31 04:18:23;;;;;;;49.57;25.23;;;-2.60;99.90;;;-146.47;100.00;66290.13;5041881;28;20222;-86
2021/01/31 04:21:08;;;;;;;45.80;20.47;;;-2.60;99.90;;;-146.47;100.00;66290.13;5036095;28;20207;-85
2021/01/31 04:23:53;;;;;;;47.63;22.57;;;-2.60;99.90;;;-146.47;100.00;66290.13;5035895;28;20283;-86
2021/01/31 04:26:39;;;;;;;47.90;23.27;;;-2.70;99.90;;;-146.47;100.00;66290.13;5033310;28;20216;-85
2021/01/31 04:29:25;;;;;;;46.37;22.00;;;-2.70;99.90;;;-146.47;100.00;66290.13;5028039;28;20266;-83
2021/01/31 04:32:11;;;;;;;39.23;18.80;;;-2.70;99.90;;;-146.47;100.00;66290.13;5030050;28;20207;-85
2021/01/31 04:34:57;;;;;;;41.43;20.47;;;-2.70;99.90;;;-146.47;100.00;66290.13;5035482;28;20203;-85
2021/01/31 04:37:42;;;;;;;43.63;21.47;;;-2.70;99.90;;;-146.47;100.00;66290.13;5036090;28;20246;-85
2021/01/31 04:40:30;;;;;;;42.43;20.40;;;-2.70;99.90;;;-146.47;100.00;66290.13;5029578;28;20243;-85
2021/01/31 04:43:19;;;;;;;41.80;20.53;;;-2.60;99.90;;;-146.47;100.00;66290.13;5035090;28;20203;-85
2021/01/31 04:46:10;;;;;;;33.27;15.57;;;-2.70;99.90;;;-146.47;100.00;66290.13;5035773;28;20266;-85
2021/01/31 04:49:11;;;;;;;38.63;20.00;;;-2.70;99.90;;;-146.47;100.00;66290.13;5022411;28;21053;-85
2021/01/31 04:52:28;;;;;;;43.33;20.30;;;-2.70;99.90;;;-146.47;100.00;66290.13;5035178;28;20198;-85
2021/01/31 04:55:39;;;;;;;42.60;20.50;;;-2.70;99.90;;;-146.47;100.00;66290.13;5035689;28;20207;-85
2021/01/31 04:58:31;;;;;;;44.30;22.00;;;-2.70;99.90;;;-146.47;100.00;66290.13;5036864;28;20227;-83
2021/01/31 05:01:24;;;;;;;47.80;23.60;;;-2.70;99.90;;;-146.47;100.00;66290.13;5037192;28;20246;-86
2021/01/31 05:04:13;;;;;;;43.87;21.40;;;-2.70;99.90;;;-146.47;100.00;66290.13;5024588;28;20680;-84
2021/01/31 05:07:07;;;;;;;42.23;19.63;;;-2.70;99.90;;;-146.47;100.00;66290.13;5036580;28;20211;-84
2021/01/31 05:09:52;;;;;;;32.07;15.67;;;-2.70;99.90;;;-146.47;100.00;66290.13;5036494;28;20219;-85
2021/01/31 05:12:43;;;;;;;39.50;19.00;;;-2.70;99.90;;;-146.47;100.00;66290.13;5034289;28;20207;-84
2021/01/31 05:15:35;;;;;;;37.20;18.83;;;-2.70;99.90;;;-146.47;100.00;66290.13;5035347;28;20208;-85
2021/01/31 05:18:22;;;;;;;38.23;18.57;;;-2.70;99.90;;;-146.47;100.00;66290.13;5028715;28;20251;-84
2021/01/31 05:21:11;;;;;;;42.83;20.10;;;-2.70;99.90;;;-146.47;100.00;66290.13;5030041;28;20210;-84
2021/01/31 05:24:03;;;;;;;38.63;20.27;;;-2.70;99.90;;;-146.47;100.00;66290.13;5035857;28;20619;-85
2021/01/31 05:26:54;;;;;;;37.80;17.43;;;-2.70;99.90;;;-146.47;100.00;66290.13;5022571;28;20262;-83
2021/01/31 05:29:40;;;;;;;38.13;17.47;;;-2.70;99.90;;;-146.47;100.00;66290.13;5035280;28;20312;-84
2021/01/31 05:32:26;;;;;;;41.50;19.50;;;-2.80;99.90;;;-146.47;100.00;66290.13;5035680;28;20223;-83
2021/01/31 05:35:22;;;;;;;39.40;18.80;;;-2.80;99.90;;;-146.47;100.00;66290.13;5033883;28;20710;-83
2021/01/31 05:38:09;;;;;;;39.43;17.47;;;-2.80;99.90;;;-146.47;100.00;66290.13;5034544;28;20316;-83
2021/01/31 05:40:56;;;;;;;42.00;20.13;;;-2.80;99.90;;;-146.47;100.00;66290.13;5059904;28;20295;-83
2021/01/31 05:43:42;;;;;;;35.50;17.53;;;-2.80;99.90;;;-146.47;100.00;66290.13;5044942;28;20203;-83
2021/01/31 05:46:41;;;;;;;37.87;20.10;;;-2.70;99.90;;;-146.47;100.00;66290.13;5046303;28;20223;-83
2021/01/31 05:49:39;;;;;;;40.07;18.73;;;-2.60;99.90;;;-146.47;100.00;66290.13;5046481;28;20228;-84
2021/01/31 05:52:35;;;;;;;36.33;19.00;;;-2.50;99.90;;;-146.47;100.00;66290.13;5035611;28;20250;-84
2021/01/31 05:55:28;;;;;;;36.23;17.63;;;-2.40;99.90;;;-146.47;100.00;66290.13;5036379;28;20214;-84
2021/01/31 05:58:17;;;;;;;36.07;17.37;;;-2.40;99.90;;;-146.47;100.00;66290.13;5035494;28;20235;-84
2021/01/31 06:01:07;;;;;;;39.47;18.67;;;-2.30;99.90;;;-146.47;100.00;66290.13;5024299;28;20216;-83
2021/01/31 06:04:09;;;;;;;40.90;19.70;;;-2.30;99.90;;;-146.47;100.00;66290.13;5044188;28;20291;-84
2021/01/31 06:07:07;;;;;;;36.17;18.70;;;-2.20;99.90;;;-146.47;100.00;66290.13;5043890;28;20231;-84
2021/01/31 06:09:53;;;;;;;34.73;18.23;;;-2.10;99.90;;;-146.47;100.00;66290.13;5038529;28;20227;-84
2021/01/31 06:12:39;;;;;;;36.40;20.50;;;-2.20;99.90;;;-146.47;100.00;66290.13;5033594;28;20235;-84
2021/01/31 06:15:41;;;;;;;33.83;18.27;;;-2.20;99.90;;;-146.47;100.00;66290.13;5032419;28;20267;-84
2021/01/31 06:18:33;;;;;;;32.23;16.60;;;-2.20;99.90;;;-146.47;100.00;66290.13;5035994;28;20234;-83
2021/01/31 06:21:36;;;;;;;34.80;17.80;;;-2.20;99.90;;;-146.47;100.00;66290.13;5035267;28;20287;-84
2021/01/31 06:24:25;;;;;;;32.53;17.73;;;-2.20;99.90;;;-146.47;100.00;66290.13;5036981;28;20289;-83
2021/01/31 06:27:28;;;;;;;34.93;17.43;;;-2.20;99.90;;;-146.47;100.00;66290.13;5029317;28;20227;-83
2021/01/31 06:30:29;;;;;;;34.53;16.93;;;-2.20;99.90;;;-146.47;100.00;66290.13;5037112;28;20674;-84
2021/01/31 06:33:15;;;;;;;33.60;17.40;;;-2.20;99.90;;;-146.47;100.00;66290.13;5051889;28;20195;-84
2021/01/31 06:36:24;;;;;;;34.50;17.53;;;-2.30;99.90;;;-146.47;100.00;66290.13;5052559;28;20211;-86
2021/01/31 06:39:33;;;;;;;35.77;16.93;;;-2.30;99.90;;;-146.47;100.00;66290.13;5031628;28;20324;-84
2021/01/31 06:42:37;;;;;;;35.53;17.07;;;-2.30;99.90;;;-146.47;100.00;66290.13;5024303;28;20348;-84
2021/01/31 06:45:33;;;;;;;33.53;17.90;;;-2.40;99.90;;;-146.47;100.00;66290.13;5029557;28;20191;-84
2021/01/31 06:48:49;;;;;;;30.87;16.77;;;-2.40;99.90;;;-146.47;100.00;66290.13;5034961;28;20297;-84
2021/01/31 06:51:57;;;;;;;34.43;18.50;;;-2.40;99.90;;;-146.47;100.00;66290.13;5029059;28;20207;-84
2021/01/31 06:55:04;;;;;;;37.53;18.23;;;-2.50;99.90;;;-146.47;100.00;66290.13;5033556;28;20633;-85
2021/01/31 06:58:20;;;;;;;37.23;18.23;;;-2.50;99.90;;;-146.47;100.00;66290.13;5035126;28;20208;-83
2021/01/31 07:01:38;;;;;;;35.03;17.37;;;-2.60;99.90;;;-146.47;100.00;66290.13;5034629;28;20231;-83
2021/01/31 07:05:05;;;;;;;33.10;15.67;;;-2.60;99.90;;;-146.47;100.00;66290.13;5029504;28;20632;-83
2021/01/31 07:08:15;;;;;;;36.53;19.40;;;-2.70;99.90;;;-146.47;100.00;66290.13;5028036;28;20200;-84
2021/01/31 07:11:38;;;;;;;34.43;17.37;;;-2.80;99.90;;;-146.47;100.00;66290.13;5028381;28;20288;-84
2021/01/31 07:14:45;;;;;;;34.70;18.53;;;-2.90;99.90;;;-146.47;100.00;66290.13;5030166;28;20288;-84
2021/01/31 07:17:36;;;;;;;35.00;16.37;;;-3.00;99.90;;;-146.47;100.00;66290.13;5028323;28;20198;-83
2021/01/31 07:20:27;;;;;;;36.67;19.33;;;-3.10;99.90;;;-146.47;100.00;66290.13;5033744;28;20219;-83
2021/01/31 07:23:25;;;;;;;39.47;18.27;;;-3.10;99.90;;;-146.47;100.00;66290.13;5032026;28;20231;-83
2021/01/31 07:26:29;;;;;;;37.07;17.63;;;-3.20;99.90;;;-146.47;100.00;66290.13;5035129;28;20299;-84
2021/01/31 07:29:25;;;;;;;37.80;17.87;;;-3.20;99.90;;;-146.47;100.00;66290.13;5036335;28;20246;-84
2021/01/31 07:32:19;;;;;;;45.07;20.60;;;-3.20;99.90;;;-146.47;100.00;66290.13;5033454;28;20251;-84
2021/01/31 07:35:11;;;;;;;40.73;19.43;;;-3.10;99.90;;;-146.47;100.00;66290.13;5038517;28;20251;-85
2021/01/31 07:38:11;;;;;;;33.67;15.20;;;-3.30;99.90;;;-146.47;100.00;66290.13;5039356;28;20214;-85
2021/01/31 07:40:59;;;;;;;38.40;19.50;;;-3.30;99.90;;;-146.47;100.00;66290.13;5033465;28;20219;-85
2021/01/31 07:43:52;;;;;;;43.40;19.07;;;-3.40;99.90;;;-146.47;100.00;66290.13;5040084;28;20227;-85
2021/01/31 07:46:38;;;;;;;45.93;20.37;;;-3.40;99.90;;;-146.47;100.00;66290.13;5039180;28;20287;-84
2021/01/31 07:49:23;;;;;;;41.70;18.03;;;-3.40;99.90;;;-146.47;100.00;66290.13;5034834;28;20224;-84
2021/01/31 07:52:09;;;;;;;47.07;20.57;;;-3.40;99.90;;;-146.47;100.00;66290.13;5038362;28;20208;-86
2021/01/31 07:55:11;;;;;;;46.47;21.87;;;-3.40;99.90;;;-146.47;100.00;66290.13;5039070;28;20303;-84
2021/01/31 07:58:35;;;;;;;45.73;19.17;;;-3.30;99.90;;;-146.47;100.00;66290.13;5039303;28;20235;-84
2021/01/31 08:01:46;;;;;;;46.73;19.93;;;-3.40;99.90;;;-146.47;100.00;66290.13;5039645;28;20671;-86
2021/01/31 08:04:48;;;;;;;48.77;20.73;;;-3.40;99.90;;;-146.47;100.00;66290.13;5039462;28;20203;-85
2021/01/31 08:08:05;;;;;;;49.87;23.33;;;-3.40;99.90;;;-146.47;100.00;66290.13;5032353;28;20210;-84
2021/01/31 08:10:51;;;;;;;44.43;21.13;;;-3.40;99.90;;;-146.47;100.00;66290.13;5038549;28;20212;-84
2021/01/31 08:13:42;;;;;;;48.33;21.23;;;-3.40;99.90;;;-146.47;100.00;66290.13;5043691;28;20223;-85
2021/01/31 08:16:57;;;;;;;47.43;19.93;;;-3.40;99.90;;;-146.47;100.00;66290.13;5045996;28;20230;-85
2021/01/31 08:19:42;;;;;;;55.90;23.87;;;-3.40;99.90;;;-146.47;100.00;66290.13;4962679;28;20234;-85
2021/01/31 08:22:34;;;;;;;54.70;24.03;;;-3.40;99.90;;;-146.47;100.00;66290.13;5044075;28;20211;-86
2021/01/31 08:25:26;;;;;;;52.33;22.90;;;-3.30;99.90;;;-146.47;100.00;66290.13;5041480;28;20192;-83
2021/01/31 08:28:21;;;;;;;65.60;25.73;;;-3.30;99.90;;;-146.47;100.00;66290.13;5037093;28;20345;-85
2021/01/31 08:31:14;;;;;;;68.60;29.07;;;-3.20;99.90;;;-146.47;100.00;66290.13;5040760;28;20212;-83
2021/01/31 08:34:03;;;;;;;64.73;25.00;;;-3.10;99.90;;;-146.47;100.00;66290.13;5035537;28;20222;-84
2021/01/31 08:41:30;;;;;;;68.73;26.63;;;-3.00;99.90;;;-146.47;100.00;66290.13;4994536;28;20366;-83
2021/01/31 08:44:59;;;;;;;71.60;28.97;;;-2.90;99.90;;;-146.47;100.00;66290.13;5039720;28;20211;-85
2021/01/31 08:47:45;;;;;;;77.87;29.10;;;-2.80;99.90;;;-146.47;100.00;66290.13;5028478;28;20569;-84
2021/01/31 08:50:30;;;;;;;81.90;30.70;;;-2.70;99.90;;;-146.47;100.00;66290.13;5039115;28;20223;-85
2021/01/31 08:53:15;;;;;;;79.73;30.80;;;-2.60;99.90;;;-146.47;100.00;66290.13;5034909;28;20211;-84
2021/01/31 08:56:21;;;;;;;79.37;30.63;;;-2.50;99.90;;;-146.47;100.00;66290.13;5034985;28;20580;-83
2021/01/31 08:59:11;;;;;;;73.70;28.50;;;-2.40;99.90;;;-146.47;100.00;66290.13;5035700;28;20234;-84
2021/01/31 09:02:21;;;;;;;76.83;31.87;;;-2.30;99.90;;;-146.47;100.00;66290.13;5033146;28;21003;-85
2021/01/31 09:05:15;;;;;;;90.07;30.83;;;-2.20;99.90;;;-146.47;100.00;66290.13;5032017;28;20262;-83
2021/01/31 09:08:06;;;;;;;69.67;28.30;;;-2.10;99.90;;;-146.47;100.00;66290.13;5035649;28;20222;-83
2021/01/31 09:10:52;;;;;;;64.23;29.17;;;-1.90;99.90;;;-146.47;100.00;66290.13;5037637;28;20627;-84
2021/01/31 09:13:38;;;;;;;65.50;28.60;;;-1.90;99.90;;;-146.47;100.00;66290.13;5039287;28;20202;-83
2021/01/31 09:16:25;;;;;;;62.80;28.43;;;-1.70;99.90;;;-146.47;100.00;66290.13;5041339;28;20235;-84
2021/01/31 09:19:19;;;;;;;58.40;28.70;;;-1.50;99.90;;;-146.47;100.00;66290.13;5058215;28;20218;-86
2021/01/31 09:22:10;;;;;;;64.30;28.27;;;-1.40;99.90;;;-146.47;100.00;66290.13;5045761;28;20215;-85
2021/01/31 09:25:01;;;;;;;51.03;24.80;;;-1.30;99.90;;;-146.47;100.00;66290.13;5037447;28;20204;-85
2021/01/31 09:28:03;;;;;;;39.90;21.00;;;-0.90;99.90;;;-146.47;100.00;66290.13;5035024;28;20227;-84
2021/01/31 09:30:55;;;;;;;35.43;18.80;;;-0.70;99.90;;;-146.47;100.00;66290.13;5037811;28;20325;-85
2021/01/31 09:33:43;;;;;;;27.13;15.20;;;-0.40;99.90;;;-146.47;100.00;66290.13;5038276;28;20212;-85
2021/01/31 09:36:33;;;;;;;30.47;16.00;;;-0.10;99.90;;;-146.47;100.00;66290.13;5042761;28;20235;-84
2021/01/31 09:39:20;;;;;;;28.53;16.67;;;0.10;99.90;;;-146.47;100.00;66290.13;5042981;28;20227;-85
2021/01/31 09:42:12;;;;;;;31.40;19.03;;;0.30;99.90;;;-146.47;100.00;66290.13;5049059;28;20187;-87
2021/01/31 09:45:02;;;;;;;29.60;17.07;;;0.50;99.90;;;-146.47;100.00;66290.13;5053022;28;20219;-83
2021/01/31 09:47:48;;;;;;;29.43;18.03;;;0.60;99.90;;;-146.47;100.00;66290.13;5057763;28;20202;-85
2021/01/31 09:50:34;;;;;;;30.47;16.57;;;0.80;99.90;;;-146.47;100.00;66290.13;5054541;28;20199;-84
2021/01/31 09:53:32;;;;;;;28.20;16.10;;;1.00;99.90;;;-146.47;100.00;66290.13;5047749;28;20209;-85
2021/01/31 09:56:39;;;;;;;25.10;15.07;;;1.10;99.90;;;-146.47;100.00;66290.13;5042134;28;20208;-85
2021/01/31 09:59:30;;;;;;;28.37;16.57;;;1.30;99.90;;;-146.47;100.00;66290.13;5036562;28;20222;-85
2021/01/31 10:02:20;;;;;;;24.90;15.33;;;1.40;99.90;;;-146.47;100.00;66290.13;5040505;28;20234;-85
2021/01/31 10:05:10;;;;;;;24.37;14.93;;;1.60;99.90;;;-146.47;100.00;66290.13;5034709;28;20738;-85
2021/01/31 10:08:06;;;;;;;25.10;15.20;;;1.70;99.90;;;-146.47;100.00;66290.13;5036108;28;20847;-86
2021/01/31 10:10:52;;;;;;;22.20;14.00;;;2.00;99.90;;;-146.47;100.00;66290.13;5031901;28;20597;-84
2021/01/31 10:13:42;;;;;;;21.57;14.97;;;2.20;99.90;;;-146.47;100.00;66290.13;5025215;28;20291;-86
2021/01/31 10:16:30;;;;;;;23.23;14.90;;;2.40;99.90;;;-146.47;100.00;66290.13;5023964;28;20218;-88
2021/01/31 10:19:22;;;;;;;21.93;13.20;;;2.60;99.90;;;-146.47;100.00;66290.13;5026538;28;20254;-86
2021/01/31 10:22:26;;;;;;;21.10;14.00;;;2.80;99.90;;;-146.47;100.00;66290.13;5027860;28;20207;-85
2021/01/31 10:25:11;;;;;;;22.27;14.30;;;3.00;99.90;;;-146.47;100.00;66290.13;5031069;28;20702;-86
2021/01/31 10:32:23;;;;;;;21.83;15.00;;;3.40;99.90;;;-146.47;100.00;66290.13;4984043;28;20209;-85
2021/01/31 10:35:32;;;;;;;21.33;13.77;;;3.80;99.90;;;-146.47;100.00;66290.13;4999025;28;20231;-85
2021/01/31 10:38:31;;;;;;;20.57;14.13;;;4.10;99.90;;;-146.47;100.00;66290.13;5032069;28;20279;-86
2021/01/31 10:41:16;;;;;;;20.43;13.90;;;4.50;99.90;;;-146.47;100.00;66290.13;5032227;28;20290;-91
2021/01/31 10:44:04;;;;;;;22.83;14.00;;;4.90;99.90;;;-146.47;100.00;66290.13;5027840;28;20211;-85
2021/01/31 10:46:50;;;;;;;20.37;13.63;;;5.20;99.90;;;-146.47;100.00;66290.13;5032063;28;20206;-88
2021/01/31 10:49:35;;;;;;;19.67;13.70;;;5.60;99.90;;;-146.47;100.00;66290.13;5029995;28;20231;-85
2021/01/31 10:52:21;;;;;;;18.67;12.90;;;5.90;99.90;;;-146.47;100.00;66290.13;5024862;28;20242;-85
2021/01/31 10:55:08;;;;;;;19.97;14.67;;;6.20;99.90;;;-146.47;100.00;66290.13;5030069;28;20732;-86
2021/01/31 10:57:54;;;;;;;19.20;13.30;;;6.50;99.90;;;-146.47;100.00;66290.13;5035630;28;20954;-86
2021/01/31 11:00:39;;;;;;;19.73;13.63;;;6.90;99.90;;;-146.47;100.00;66290.13;5031922;28;20282;-85
2021/01/31 11:03:24;;;;;;;17.97;12.93;;;7.20;99.90;;;-146.47;100.00;66290.13;5029048;28;20254;-85
2021/01/31 11:06:11;;;;;;;18.40;13.10;;;7.50;99.90;;;-146.47;100.00;66290.13;5037548;28;20334;-84
2021/01/31 11:08:56;;;;;;;19.40;13.67;;;7.70;99.90;;;-146.47;100.00;66290.13;5035525;28;20299;-83
2021/01/31 11:11:41;;;;;;;17.80;13.37;;;8.10;99.90;;;-146.47;100.00;66290.13;5033496;28;20250;-83
2021/01/31 11:15:08;;;;;;;16.57;12.30;;;8.40;99.90;;;-146.47;100.00;66290.13;5029310;28;20195;-83
2021/01/31 11:17:53;;;;;;;18.90;13.53;;;8.80;99.90;;;-146.47;100.00;66290.13;5029224;28;20218;-82
2021/01/31 11:20:38;;;;;;;18.97;12.23;;;9.30;99.90;;;-146.47;100.00;66290.13;5033042;28;20257;-82
2021/01/31 11:23:25;;;;;;;17.33;13.20;;;9.70;99.90;;;-146.47;100.00;66290.13;5030690;28;20203;-83
2021/01/31 11:26:10;;;;;;;18.70;13.17;;;10.10;99.90;;;-146.47;100.00;66290.13;5034036;28;20701;-84
2021/01/31 11:28:55;;;;;;;16.53;13.33;;;10.60;99.90;;;-146.47;100.00;66290.13;5047963;28;20282;-84
2021/01/31 11:31:40;;;;;;;17.50;12.10;;;11.00;99.90;;;-146.47;100.00;66290.13;5046075;28;20227;-83
2021/01/31 11:34:25;;;;;;;15.77;12.47;;;11.40;99.90;;;-146.47;100.00;66290.13;5046387;28;20199;-85
2021/01/31 11:37:11;;;;;;;15.13;12.27;;;11.90;99.90;;;-146.47;100.00;66290.13;5049043;28;20857;-85
2021/01/31 11:39:57;;;;;;;16.73;12.60;;;12.30;99.90;;;-146.47;100.00;66290.13;5045533;28;20234;-85